sensor_id;sensor_type;location;lat;lon;timestamp;P1;durP1;ratioP1;P2;durP2;ratioP2
30020;SDS011;16861;52.294;7.760;2024-03-08T06:04:48;39.40;;;22.83;;
30020;SDS011;16861;52.294;7.760;2024-03-08T06:07:16;47.80;;;24.15;;
30020;SDS011;16861;52.294;7.760;2024-03-08T06:12:15;38.92;;;24.10;;
30020;SDS011;16861;52.294;7.760;2024-03-08T06:14:45;43.28;;;24.38;;
30020;SDS011;16861;52.294;7.760;2024-03-08T06:19:57;45.47;;;24.20;;
30020;SDS011;16861;52.294;7.760;2024-03-08T06:22:26;43.00;;;23.90;;
30020;SDS011;16861;52.294;7.760;2024-03-08T06:24:52;41.53;;;23.77;;
30020;SDS011;16861;52.294;7.760;2024-03-08T06:27:20;48.13;;;25.17;;
30020;SDS011;16861;52.294;7.760;2024-03-08T06:30:01;42.50;;;24.08;;
30020;SDS011;16861;52.294;7.760;2024-03-08T06:32:28;46.35;;;23.38;;
30020;SDS011;16861;52.294;7.760;2024-03-08T06:37:44;44.85;;;24.45;;
30020;SDS011;16861;52.294;7.760;2024-03-08T06:40:19;42.05;;;23.88;;
30020;SDS011;16861;52.294;7.760;2024-03-08T06:42:45;41.90;;;23.95;;
30020;SDS011;16861;52.294;7.760;2024-03-08T06:45:27;41.38;;;24.42;;
30020;SDS011;16861;52.294;7.760;2024-03-08T06:47:54;42.75;;;23.38;;
30020;SDS011;16861;52.294;7.760;2024-03-08T06:50:28;41.95;;;23.98;;
30020;SDS011;16861;52.294;7.760;2024-03-08T06:52:55;42.80;;;24.25;;
30020;SDS011;16861;52.294;7.760;2024-03-08T06:58:02;41.88;;;24.65;;
30020;SDS011;16861;52.294;7.760;2024-03-08T07:00:45;47.80;;;25.83;;
30020;SDS011;16861;52.294;7.760;2024-03-08T07:06:10;41.70;;;23.67;;
30020;SDS011;16861;52.294;7.760;2024-03-08T07:08:37;41.28;;;24.02;;
30020;SDS011;16861;52.294;7.760;2024-03-08T07:11:16;44.30;;;24.77;;
30020;SDS011;16861;52.294;7.760;2024-03-08T07:13:45;45.33;;;24.73;;
30020;SDS011;16861;52.294;7.760;2024-03-08T07:16:12;47.30;;;26.17;;
30020;SDS011;16861;52.294;7.760;2024-03-08T07:21:43;45.55;;;24.67;;
30020;SDS011;16861;52.294;7.760;2024-03-08T07:24:27;41.20;;;23.75;;
30020;SDS011;16861;52.294;7.760;2024-03-08T07:27:16;49.67;;;24.98;;
30020;SDS011;16861;52.294;7.760;2024-03-08T07:29:44;48.60;;;26.13;;
30020;SDS011;16861;52.294;7.760;2024-03-08T07:35:58;42.45;;;24.25;;
30020;SDS011;16861;52.294;7.760;2024-03-08T07:41:13;42.28;;;24.05;;
30020;SDS011;16861;52.294;7.760;2024-03-08T07:43:41;43.28;;;23.77;;
30020;SDS011;16861;52.294;7.760;2024-03-08T07:48:40;42.42;;;23.95;;
30020;SDS011;16861;52.294;7.760;2024-03-08T07:54:01;43.75;;;25.17;;
30020;SDS011;16861;52.294;7.760;2024-03-08T07:56:34;45.28;;;24.73;;
30020;SDS011;16861;52.294;7.760;2024-03-08T07:59:04;43.58;;;24.35;;
30020;SDS011;16861;52.294;7.760;2024-03-08T08:04:01;41.33;;;25.33;;
30020;SDS011;16861;52.294;7.760;2024-03-08T08:06:28;45.05;;;25.77;;
30020;SDS011;16861;52.294;7.760;2024-03-08T08:09:17;42.53;;;25.45;;
30020;SDS011;16861;52.294;7.760;2024-03-08T08:11:54;45.15;;;24.98;;
30020;SDS011;16861;52.294;7.760;2024-03-08T08:14:22;43.15;;;25.40;;
30020;SDS011;16861;52.294;7.760;2024-03-08T08:16:49;43.15;;;24.67;;
30020;SDS011;16861;52.294;7.760;2024-03-08T08:19:19;43.30;;;26.25;;
30020;SDS011;16861;52.294;7.760;2024-03-08T08:21:54;42.83;;;26.10;;
30020;SDS011;16861;52.294;7.760;2024-03-08T08:24:20;44.55;;;25.35;;
30020;SDS011;16861;52.294;7.760;2024-03-08T18:53:25;36.30;;;21.05;;
30020;SDS011;16861;52.294;7.760;2024-03-08T18:56:00;34.25;;;22.13;;
30020;SDS011;16861;52.294;7.760;2024-03-08T18:58:27;36.35;;;22.63;;
30020;SDS011;16861;52.294;7.760;2024-03-08T19:01:17;38.42;;;23.02;;
30020;SDS011;16861;52.294;7.760;2024-03-08T19:04:02;36.28;;;22.73;;
30020;SDS011;16861;52.294;7.760;2024-03-08T19:06:30;34.72;;;23.23;;
30020;SDS011;16861;52.294;7.760;2024-03-08T19:08:59;37.53;;;23.98;;
30020;SDS011;16861;52.294;7.760;2024-03-08T19:14:35;38.03;;;23.50;;
30020;SDS011;16861;52.294;7.760;2024-03-08T19:17:04;36.05;;;23.05;;
30020;SDS011;16861;52.294;7.760;2024-03-08T19:26:43;36.72;;;22.67;;
30020;SDS011;16861;52.294;7.760;2024-03-08T19:32:59;35.30;;;22.88;;
30020;SDS011;16861;52.294;7.760;2024-03-08T19:35:31;36.75;;;24.02;;
30020;SDS011;16861;52.294;7.760;2024-03-08T19:37:57;35.55;;;22.48;;
30020;SDS011;16861;52.294;7.760;2024-03-08T19:40:28;34.75;;;22.85;;
30020;SDS011;16861;52.294;7.760;2024-03-08T19:43:00;38.75;;;23.83;;
30020;SDS011;16861;52.294;7.760;2024-03-08T19:45:28;39.05;;;23.83;;
30020;SDS011;16861;52.294;7.760;2024-03-08T19:53:20;36.58;;;22.88;;
30020;SDS011;16861;52.294;7.760;2024-03-08T19:58:41;36.60;;;23.45;;
30020;SDS011;16861;52.294;7.760;2024-03-08T20:03:52;36.33;;;23.52;;
30020;SDS011;16861;52.294;7.760;2024-03-08T20:06:26;36.28;;;23.35;;
30020;SDS011;16861;52.294;7.760;2024-03-08T20:08:53;37.90;;;23.45;;
30020;SDS011;16861;52.294;7.760;2024-03-08T20:14:15;40.35;;;25.13;;
30020;SDS011;16861;52.294;7.760;2024-03-08T20:16:43;38.72;;;23.67;;
30020;SDS011;16861;52.294;7.760;2024-03-08T20:19:12;39.30;;;24.70;;
30020;SDS011;16861;52.294;7.760;2024-03-08T20:21:38;40.53;;;24.88;;
30020;SDS011;16861;52.294;7.760;2024-03-08T20:24:19;41.13;;;24.75;;
30020;SDS011;16861;52.294;7.760;2024-03-08T20:26:46;37.08;;;24.67;;
30020;SDS011;16861;52.294;7.760;2024-03-08T20:29:13;39.30;;;24.98;;
30020;SDS011;16861;52.294;7.760;2024-03-08T20:31:55;40.03;;;25.48;;
30020;SDS011;16861;52.294;7.760;2024-03-08T20:34:22;41.00;;;24.80;;
30020;SDS011;16861;52.294;7.760;2024-03-08T20:40:37;36.00;;;22.77;;
30020;SDS011;16861;52.294;7.760;2024-03-08T20:45:42;38.00;;;23.90;;
30020;SDS011;16861;52.294;7.760;2024-03-08T20:54:22;41.28;;;24.33;;
30020;SDS011;16861;52.294;7.760;2024-03-08T20:56:48;37.72;;;24.10;;
30020;SDS011;16861;52.294;7.760;2024-03-08T21:02:02;40.92;;;23.73;;
30020;SDS011;16861;52.294;7.760;2024-03-08T21:04:31;38.85;;;25.15;;
30020;SDS011;16861;52.294;7.760;2024-03-08T21:07:01;41.90;;;25.50;;
30020;SDS011;16861;52.294;7.760;2024-03-08T21:09:30;38.60;;;23.38;;
30020;SDS011;16861;52.294;7.760;2024-03-08T21:14:50;38.35;;;24.20;;
30020;SDS011;16861;52.294;7.760;2024-03-08T21:17:24;42.58;;;24.73;;
30020;SDS011;16861;52.294;7.760;2024-03-08T21:25:06;42.78;;;24.70;;
30020;SDS011;16861;52.294;7.760;2024-03-08T21:27:33;40.83;;;23.70;;
30020;SDS011;16861;52.294;7.760;2024-03-08T21:30:06;46.53;;;25.90;;
30020;SDS011;16861;52.294;7.760;2024-03-08T21:32:35;41.55;;;24.63;;
30020;SDS011;16861;52.294;7.760;2024-03-08T21:35:02;38.90;;;24.10;;
30020;SDS011;16861;52.294;7.760;2024-03-08T21:40:22;38.05;;;25.25;;
30020;SDS011;16861;52.294;7.760;2024-03-08T21:42:53;38.80;;;23.65;;
30020;SDS011;16861;52.294;7.760;2024-03-08T21:45:33;38.72;;;24.73;;
30020;SDS011;16861;52.294;7.760;2024-03-08T21:48:03;42.05;;;24.88;;
30020;SDS011;16861;52.294;7.760;2024-03-08T21:53:20;38.15;;;24.45;;
30020;SDS011;16861;52.294;7.760;2024-03-08T21:55:58;43.88;;;25.77;;
30020;SDS011;16861;52.294;7.760;2024-03-08T22:00:55;39.60;;;24.25;;
30020;SDS011;16861;52.294;7.760;2024-03-08T22:03:22;38.47;;;23.17;;
30020;SDS011;16861;52.294;7.760;2024-03-08T22:05:55;42.10;;;24.92;;
30020;SDS011;16861;52.294;7.760;2024-03-08T22:08:22;39.78;;;25.60;;
30020;SDS011;16861;52.294;7.760;2024-03-08T22:10:49;43.97;;;25.45;;
30020;SDS011;16861;52.294;7.760;2024-03-08T22:13:28;37.17;;;23.23;;
30020;SDS011;16861;52.294;7.760;2024-03-08T22:15:55;40.92;;;25.17;;
30020;SDS011;16861;52.294;7.760;2024-03-08T22:18:21;36.88;;;23.67;;
30020;SDS011;16861;52.294;7.760;2024-03-08T22:23:36;42.70;;;25.10;;
30020;SDS011;16861;52.294;7.760;2024-03-08T22:26:04;38.97;;;23.95;;
30020;SDS011;16861;52.294;7.760;2024-03-08T22:31:13;40.60;;;23.80;;
30020;SDS011;16861;52.294;7.760;2024-03-08T22:33:41;38.85;;;24.00;;
30020;SDS011;16861;52.294;7.760;2024-03-08T22:36:09;37.88;;;24.02;;
30020;SDS011;16861;52.294;7.760;2024-03-08T22:38:46;38.63;;;24.85;;
30020;SDS011;16861;52.294;7.760;2024-03-08T22:41:14;36.67;;;22.48;;
30020;SDS011;16861;52.294;7.760;2024-03-08T22:46:25;38.45;;;23.40;;
30020;SDS011;16861;52.294;7.760;2024-03-08T22:48:53;37.65;;;23.65;;
30020;SDS011;16861;52.294;7.760;2024-03-08T22:51:36;37.85;;;23.13;;
30020;SDS011;16861;52.294;7.760;2024-03-08T22:54:03;38.70;;;22.77;;
30020;SDS011;16861;52.294;7.760;2024-03-08T22:56:30;35.00;;;21.90;;
30020;SDS011;16861;52.294;7.760;2024-03-08T22:59:03;40.67;;;22.67;;
30020;SDS011;16861;52.294;7.760;2024-03-08T23:01:31;35.00;;;22.85;;
30020;SDS011;16861;52.294;7.760;2024-03-08T23:04:01;35.42;;;22.50;;
30020;SDS011;16861;52.294;7.760;2024-03-08T23:06:28;35.45;;;22.88;;
30020;SDS011;16861;52.294;7.760;2024-03-08T23:08:54;35.15;;;21.20;;
30020;SDS011;16861;52.294;7.760;2024-03-08T23:14:17;38.17;;;22.52;;
30020;SDS011;16861;52.294;7.760;2024-03-08T23:16:50;36.72;;;22.23;;
30020;SDS011;16861;52.294;7.760;2024-03-08T23:19:17;35.47;;;21.60;;
30020;SDS011;16861;52.294;7.760;2024-03-08T23:21:51;38.70;;;23.17;;
30020;SDS011;16861;52.294;7.760;2024-03-08T23:24:17;35.28;;;20.77;;
30020;SDS011;16861;52.294;7.760;2024-03-08T23:26:57;36.53;;;21.75;;
30020;SDS011;16861;52.294;7.760;2024-03-08T23:29:23;35.08;;;21.50;;
30020;SDS011;16861;52.294;7.760;2024-03-08T23:31:50;34.95;;;20.98;;
30020;SDS011;16861;52.294;7.760;2024-03-08T23:37:13;38.03;;;21.30;;
30020;SDS011;16861;52.294;7.760;2024-03-08T23:39:40;32.13;;;20.30;;
30020;SDS011;16861;52.294;7.760;2024-03-08T23:44:51;38.15;;;20.50;;
30020;SDS011;16861;52.294;7.760;2024-03-08T23:47:18;36.70;;;21.48;;
30020;SDS011;16861;52.294;7.760;2024-03-08T23:49:47;37.80;;;21.58;;
30020;SDS011;16861;52.294;7.760;2024-03-08T23:52:22;34.38;;;21.15;;
30020;SDS011;16861;52.294;7.760;2024-03-08T23:54:49;34.17;;;20.27;;
30020;SDS011;16861;52.294;7.760;2024-03-08T23:57:16;36.17;;;21.48;;
30020;SDS011;16861;52.294;7.760;2024-03-08T23:59:43;36.28;;;20.80;;
